createdAt,value
2019-02-04T00:01:54.799Z,12.27
2019-02-04T00:04:24.497Z,13.87
2019-02-04T00:06:54.326Z,11.63
2019-02-04T00:09:23.917Z,12.37
2019-02-04T00:11:53.950Z,13.80
2019-02-04T00:14:26.986Z,13.10
2019-02-04T00:16:56.605Z,13.37
2019-02-04T00:19:26.214Z,12.23
2019-02-04T00:21:55.962Z,15.10
2019-02-04T00:24:25.655Z,13.33
2019-02-04T00:26:55.408Z,15.03
2019-02-04T00:29:25.342Z,16.40
2019-02-04T00:31:55.006Z,16.40
2019-02-04T00:34:24.634Z,13.77
2019-02-04T00:36:54.277Z,15.23
2019-02-04T00:39:24.097Z,14.03
2019-02-04T00:41:53.846Z,13.72
2019-02-04T00:44:23.710Z,16.33
2019-02-04T00:46:53.509Z,18.90
2019-02-04T00:49:23.060Z,17.47
2019-02-04T00:51:52.861Z,15.55
2019-02-04T00:54:22.515Z,18.10
2019-02-04T00:56:52.386Z,21.33
2019-02-04T00:59:21.940Z,15.77
2019-02-04T01:01:51.578Z,19.57
2019-02-04T01:04:21.228Z,15.63
2019-02-04T01:06:51.406Z,19.98
2019-02-04T01:09:21.088Z,16.30
2019-02-04T01:11:50.776Z,18.97
2019-02-04T01:14:20.479Z,15.73
2019-02-04T01:16:50.282Z,15.93
2019-02-04T01:19:20.339Z,17.15
2019-02-04T01:21:50.048Z,17.33
2019-02-04T01:24:19.571Z,13.33
2019-02-04T01:26:49.180Z,15.27
2019-02-04T01:29:18.729Z,17.20
2019-02-04T01:31:48.618Z,20.13
2019-02-04T01:34:18.564Z,15.85
2019-02-04T01:36:48.253Z,12.67
2019-02-04T01:39:18.063Z,15.28
2019-02-04T01:41:47.588Z,15.40
2019-02-04T01:44:17.257Z,14.13
2019-02-04T01:46:46.828Z,12.90
2019-02-04T01:49:16.721Z,16.87
2019-02-04T01:51:46.278Z,14.20
2019-02-04T01:54:15.906Z,14.67
2019-02-04T01:56:45.501Z,15.45
2019-02-04T01:59:14.984Z,14.50
2019-02-04T02:01:44.559Z,16.50
2019-02-04T02:04:14.702Z,16.15
2019-02-04T02:06:44.306Z,14.50
2019-02-04T02:09:22.970Z,15.40
2019-02-04T02:11:52.517Z,14.47
2019-02-04T02:14:22.506Z,12.03
2019-02-04T02:16:52.335Z,14.80
2019-02-04T02:19:23.503Z,15.53
2019-02-04T02:21:53.255Z,17.98
2019-02-04T02:24:22.798Z,17.00
2019-02-04T02:26:52.529Z,14.47
2019-02-04T02:29:22.321Z,15.40
2019-02-04T02:31:52.002Z,16.32
2019-02-04T02:34:21.905Z,17.80
2019-02-04T02:36:52.363Z,16.10
2019-02-04T02:39:22.010Z,17.03
2019-02-04T02:41:52.110Z,19.60
2019-02-04T02:44:21.792Z,13.13
2019-02-04T02:46:51.480Z,13.63
2019-02-04T02:49:21.129Z,15.80
2019-02-04T02:51:50.826Z,19.57
2019-02-04T02:54:20.391Z,16.40
2019-02-04T02:56:50.318Z,21.02
2019-02-04T02:59:19.932Z,20.63
2019-02-04T03:01:49.768Z,17.00
2019-02-04T03:04:19.431Z,16.10
2019-02-04T03:06:49.313Z,16.93
2019-02-04T03:09:18.934Z,20.17
2019-02-04T03:11:48.588Z,19.27
2019-02-04T03:14:18.149Z,20.97
2019-02-04T03:16:47.860Z,17.73
2019-02-04T03:19:17.531Z,22.90
2019-02-04T03:21:47.305Z,17.80
2019-02-04T03:24:17.539Z,21.87
2019-02-04T03:26:47.097Z,18.67
2019-02-04T03:29:16.833Z,19.00
2019-02-04T03:31:46.718Z,18.83
2019-02-04T03:34:16.361Z,20.47
2019-02-04T03:36:46.129Z,15.83
2019-02-04T03:39:15.803Z,16.03
2019-02-04T03:41:45.390Z,18.73
2019-02-04T03:44:14.986Z,16.07
2019-02-04T03:46:44.560Z,16.33
2019-02-04T03:49:14.361Z,19.53
2019-02-04T03:51:44.407Z,18.13
2019-02-04T03:54:14.045Z,14.83
2019-02-04T03:56:43.643Z,15.80
2019-02-04T03:59:13.510Z,19.33
2019-02-04T04:01:43.073Z,14.37
2019-02-04T04:04:12.730Z,16.37
2019-02-04T04:06:42.578Z,15.23
2019-02-04T04:09:12.595Z,19.15
2019-02-04T04:11:42.487Z,16.43
2019-02-04T04:14:12.181Z,12.27
2019-02-04T04:16:42.091Z,13.53
2019-02-04T04:19:12.192Z,14.30
2019-02-04T04:21:42.076Z,15.40
2019-02-04T04:24:11.897Z,16.12
2019-02-04T04:26:41.529Z,17.30
2019-02-04T04:29:11.317Z,12.67
2019-02-04T04:31:41.084Z,16.50
2019-02-04T04:34:10.851Z,12.47
2019-02-04T04:36:40.404Z,12.47
2019-02-04T04:39:10.276Z,16.23
2019-02-04T04:41:40.206Z,11.17
2019-02-04T04:44:09.989Z,13.83
2019-02-04T04:46:39.951Z,17.40
2019-02-04T04:49:09.626Z,13.93
2019-02-04T04:51:39.361Z,14.27
2019-02-04T04:54:09.200Z,14.43
2019-02-04T04:56:39.061Z,15.35
2019-02-04T04:59:09.113Z,15.77
2019-02-04T05:01:38.780Z,15.37
2019-02-04T05:04:08.479Z,16.07
2019-02-04T05:06:38.408Z,13.15
2019-02-04T05:09:08.836Z,14.03
2019-02-04T05:11:38.776Z,14.93
2019-02-04T05:14:08.454Z,14.80
2019-02-04T05:16:39.394Z,14.10
2019-02-04T05:19:10.315Z,13.57
2019-02-04T05:21:40.371Z,14.07
2019-02-04T05:24:10.240Z,12.23
2019-02-04T05:26:39.956Z,16.57
2019-02-04T05:29:10.027Z,12.07
2019-02-04T05:31:39.632Z,13.37
2019-02-04T05:34:09.586Z,13.73
2019-02-04T05:36:39.531Z,15.47
2019-02-04T05:39:09.532Z,12.97
2019-02-04T05:41:39.506Z,12.40
2019-02-04T05:44:09.405Z,16.33
2019-02-04T05:46:39.048Z,17.13
2019-02-04T05:49:08.824Z,15.10
2019-02-04T05:51:38.412Z,19.87
2019-02-04T05:54:10.163Z,12.30
2019-02-04T05:56:39.610Z,16.50
2019-02-04T05:59:09.514Z,14.07
2019-02-04T06:01:39.460Z,12.57
2019-02-04T06:04:09.173Z,12.43
2019-02-04T06:06:39.083Z,14.23
2019-02-04T06:09:09.750Z,18.93
2019-02-04T06:11:39.729Z,10.78
2019-02-04T06:14:09.471Z,13.03
2019-02-04T06:16:39.343Z,15.47
2019-02-04T06:19:09.474Z,12.90
2019-02-04T06:21:39.752Z,16.00
2019-02-04T06:24:09.514Z,13.80
2019-02-04T06:26:39.596Z,12.87
2019-02-04T06:29:09.434Z,16.07
2019-02-04T06:31:39.155Z,14.00
2019-02-04T06:34:09.660Z,13.40
2019-02-04T06:36:40.154Z,13.87
2019-02-04T06:39:12.334Z,18.07
2019-02-04T06:41:42.301Z,15.08
2019-02-04T06:44:13.882Z,17.67
2019-02-04T06:46:43.673Z,16.20
2019-02-04T06:49:13.638Z,16.17
2019-02-04T06:51:43.234Z,15.07
2019-02-04T06:54:12.882Z,14.63
2019-02-04T06:56:42.828Z,15.07
2019-02-04T06:59:13.025Z,15.23
2019-02-04T07:01:42.637Z,14.40
2019-02-04T07:04:12.668Z,10.78
2019-02-04T07:06:42.502Z,16.37
2019-02-04T07:09:13.253Z,13.73
2019-02-04T07:11:43.025Z,17.80
2019-02-04T07:14:12.897Z,12.37
2019-02-04T07:16:42.619Z,16.70
2019-02-04T07:19:23.328Z,15.53
2019-02-04T07:21:43.942Z,12.83
2019-02-04T07:24:13.660Z,16.20
2019-02-04T07:26:43.329Z,12.13
2019-02-04T07:29:13.003Z,15.15
2019-02-04T07:31:42.958Z,15.63
2019-02-04T07:34:12.653Z,17.87
2019-02-04T07:36:42.419Z,12.70
2019-02-04T07:39:12.134Z,10.93
2019-02-04T07:41:42.083Z,13.05
2019-02-04T07:44:12.035Z,14.27
2019-02-04T07:46:42.268Z,19.27
2019-02-04T07:49:12.096Z,14.43
2019-02-04T07:51:41.872Z,13.30
2019-02-04T07:54:11.569Z,69.10
2019-02-04T07:56:41.549Z,13.80
2019-02-04T07:59:11.508Z,9.83
2019-02-04T08:01:41.520Z,14.67
2019-02-04T08:04:11.351Z,11.80
2019-02-04T08:06:41.324Z,18.43
2019-02-04T08:09:11.705Z,11.50
2019-02-04T08:11:41.486Z,13.00
2019-02-04T08:14:11.581Z,11.67
2019-02-04T08:16:41.510Z,7.97
2019-02-04T08:19:11.355Z,9.13
2019-02-04T08:21:41.169Z,6.73
2019-02-04T08:24:10.961Z,12.40
2019-02-04T08:26:40.920Z,8.35
2019-02-04T08:29:10.673Z,10.73
2019-02-04T08:31:40.440Z,10.63
2019-02-04T08:34:10.248Z,11.35
2019-02-04T08:36:46.000Z,11.37
2019-02-04T08:39:11.410Z,12.00
2019-02-04T08:41:41.178Z,10.87
2019-02-04T08:44:11.089Z,9.63
2019-02-04T08:46:40.837Z,11.03
2019-02-04T08:49:10.595Z,11.83
2019-02-04T08:51:40.379Z,9.57
2019-02-04T08:54:10.326Z,15.97
2019-02-04T08:56:42.901Z,7.27
2019-02-04T08:59:11.765Z,9.60
2019-02-04T09:01:41.602Z,11.23
2019-02-04T09:04:11.574Z,12.47
2019-02-04T09:06:42.818Z,6.40
2019-02-04T09:09:13.071Z,10.43
2019-02-04T09:11:43.026Z,9.23
2019-02-04T09:14:12.640Z,10.57
2019-02-04T09:16:42.666Z,8.73
2019-02-04T09:19:12.583Z,9.83
2019-02-04T09:21:42.555Z,9.50
2019-02-04T09:24:13.644Z,8.33
2019-02-04T09:26:43.656Z,9.80
2019-02-04T09:29:13.572Z,10.00
2019-02-04T09:31:46.845Z,9.47
2019-02-04T09:34:17.695Z,13.37
2019-02-04T09:36:47.677Z,13.87
2019-02-04T09:39:17.734Z,13.90
2019-02-04T09:41:47.317Z,12.07
2019-02-04T09:44:17.244Z,8.07
2019-02-04T09:46:52.617Z,11.53
2019-02-04T09:49:22.634Z,7.80
2019-02-04T09:51:52.286Z,10.87
2019-02-04T09:54:22.169Z,8.17
2019-02-04T09:56:52.076Z,11.03
2019-02-04T09:59:22.529Z,10.87
2019-02-04T10:01:52.188Z,10.87
2019-02-04T10:04:21.916Z,14.53
2019-02-04T10:06:51.661Z,11.40
2019-02-04T10:09:21.415Z,16.03
2019-02-04T10:11:50.972Z,8.47
2019-02-04T10:14:20.478Z,10.83
2019-02-04T10:16:50.241Z,11.83
2019-02-04T10:19:19.780Z,9.50
2019-02-04T10:21:49.622Z,12.10
2019-02-04T10:24:19.174Z,12.63
2019-02-04T10:26:48.765Z,9.07
2019-02-04T10:29:18.439Z,11.57
2019-02-04T10:31:48.688Z,6.97
2019-02-04T10:34:18.425Z,12.07
2019-02-04T10:36:48.201Z,11.20
2019-02-04T10:39:18.029Z,16.53
2019-02-04T10:41:48.243Z,9.50
2019-02-04T10:44:18.418Z,9.93
2019-02-04T10:46:48.606Z,10.20
2019-02-04T10:49:18.555Z,11.40
2019-02-04T10:51:48.304Z,11.90
2019-02-04T10:54:18.161Z,9.80
2019-02-04T10:56:47.906Z,14.57
2019-02-04T10:59:17.662Z,9.43
2019-02-04T11:01:47.176Z,8.50
2019-02-04T11:04:17.149Z,9.07
2019-02-04T11:06:47.072Z,11.47
2019-02-04T11:09:16.792Z,11.57
2019-02-04T11:11:46.391Z,12.47
2019-02-04T11:14:16.334Z,9.87
2019-02-04T11:16:46.017Z,5.90
2019-02-04T11:19:15.943Z,9.30
2019-02-04T11:21:45.679Z,6.97
2019-02-04T11:24:15.374Z,5.00
2019-02-04T11:26:45.092Z,4.77
2019-02-04T11:29:14.976Z,5.83
2019-02-04T11:31:45.051Z,4.33
2019-02-04T11:34:14.786Z,5.87
2019-02-04T11:36:44.536Z,5.13
2019-02-04T11:39:14.189Z,5.20
2019-02-04T11:41:43.884Z,3.43
2019-02-04T11:44:13.564Z,4.07
2019-02-04T11:46:43.472Z,4.13
2019-02-04T11:49:13.079Z,2.33
2019-02-04T11:51:42.920Z,6.03
2019-02-04T11:54:12.817Z,4.47
2019-02-04T11:56:42.584Z,5.33
2019-02-04T11:59:13.831Z,1.90
2019-02-04T12:01:43.635Z,1.77
2019-02-04T12:04:13.497Z,1.23
2019-02-04T12:06:43.303Z,2.30
2019-02-04T12:09:13.293Z,1.20
2019-02-04T12:11:42.902Z,1.20
2019-02-04T12:14:12.779Z,1.53
2019-02-04T12:16:42.368Z,0.90
2019-02-04T12:19:12.194Z,1.87
2019-02-04T12:21:42.023Z,0.80
2019-02-04T12:24:11.983Z,1.30
2019-02-04T12:26:41.548Z,1.67
2019-02-04T12:29:11.423Z,1.33
2019-02-04T12:31:41.311Z,0.87
2019-02-04T12:34:11.081Z,1.17
2019-02-04T12:36:41.041Z,1.10
2019-02-04T12:39:18.809Z,1.47
2019-02-04T12:41:50.607Z,0.93
2019-02-04T12:44:20.163Z,1.27
2019-02-04T12:46:49.812Z,1.30
2019-02-04T12:49:20.093Z,1.30
2019-02-04T12:51:49.806Z,1.20
2019-02-04T12:54:19.684Z,3.20
2019-02-04T12:56:49.391Z,1.53
2019-02-04T12:59:19.037Z,1.57
2019-02-04T13:01:48.698Z,1.80
2019-02-04T13:04:18.658Z,2.40
2019-02-04T13:06:48.348Z,2.10
2019-02-04T13:09:18.407Z,1.70
2019-02-04T13:11:48.196Z,1.93
2019-02-04T13:14:17.791Z,1.70
2019-02-04T13:16:47.416Z,1.60
2019-02-04T13:19:17.320Z,2.10
2019-02-04T13:21:46.942Z,1.60
2019-02-04T13:24:16.646Z,2.90
2019-02-04T13:26:46.362Z,2.70
2019-02-04T13:29:15.976Z,2.40
2019-02-04T13:31:45.605Z,3.20
2019-02-04T13:34:15.292Z,3.30
2019-02-04T13:36:45.226Z,3.40
2019-02-04T13:39:14.969Z,4.93
2019-02-04T13:41:44.723Z,5.03
2019-02-04T13:44:14.310Z,5.13
2019-02-04T13:46:44.766Z,6.13
2019-02-04T13:49:14.557Z,8.30
2019-02-04T13:51:44.334Z,6.53
2019-02-04T13:54:14.152Z,7.33
2019-02-04T13:56:43.799Z,10.10
2019-02-04T13:59:13.513Z,9.80
2019-02-04T14:01:43.213Z,12.37
2019-02-04T14:04:13.205Z,13.67
2019-02-04T14:06:43.033Z,17.40
2019-02-04T14:09:18.447Z,15.80
2019-02-04T14:11:48.355Z,17.43
2019-02-04T14:14:17.938Z,21.47
2019-02-04T14:16:47.763Z,18.70
2019-02-04T14:19:17.325Z,21.30
2019-02-04T14:21:47.290Z,22.50
2019-02-04T14:24:16.913Z,25.23
2019-02-04T14:26:46.554Z,23.77
2019-02-04T14:29:16.243Z,26.90
2019-02-04T14:31:45.976Z,31.93
2019-02-04T14:34:17.017Z,35.43
2019-02-04T14:36:46.809Z,32.27
2019-02-04T14:39:16.864Z,36.73
2019-02-04T14:41:46.413Z,26.93
2019-02-04T14:44:43.631Z,33.93
2019-02-04T14:47:21.493Z,34.23
2019-02-04T14:50:12.695Z,30.43
2019-02-04T14:53:03.664Z,32.87
2019-02-04T14:56:04.411Z,29.87
2019-02-04T14:59:06.761Z,33.37
2019-02-04T15:02:14.594Z,37.47
2019-02-04T15:05:09.959Z,33.03
2019-02-04T15:08:05.821Z,29.43
2019-02-04T15:11:09.213Z,35.67
2019-02-04T15:14:19.618Z,41.47
2019-02-04T15:17:03.231Z,38.37
2019-02-04T15:20:06.487Z,28.67
2019-02-04T15:23:39.589Z,40.93
2019-02-04T15:27:23.101Z,33.67
2019-02-04T15:30:43.354Z,36.33
2019-02-04T15:33:31.846Z,28.33
2019-02-04T15:36:35.361Z,28.87
2019-02-04T15:39:34.816Z,32.33
2019-02-04T15:42:42.820Z,35.27
2019-02-04T15:45:50.540Z,28.30
2019-02-04T15:48:27.854Z,32.37
2019-02-04T15:51:13.920Z,41.60
2019-02-04T15:53:43.872Z,38.57
2019-02-04T15:56:13.691Z,31.20
2019-02-04T15:58:43.456Z,38.90
2019-02-04T16:01:13.086Z,41.77
2019-02-04T16:03:42.699Z,39.43
2019-02-04T16:06:12.445Z,44.70
2019-02-04T16:08:42.300Z,47.00
2019-02-04T16:11:13.184Z,37.30
2019-02-04T16:13:42.772Z,33.63
2019-02-04T16:16:12.659Z,29.07
2019-02-04T16:18:42.492Z,31.87
2019-02-04T16:21:12.446Z,34.03
2019-02-04T16:23:43.346Z,31.30
2019-02-04T16:26:15.187Z,36.27
2019-02-04T16:28:44.345Z,35.70
2019-02-04T16:31:14.045Z,32.03
2019-02-04T16:33:43.590Z,29.73
2019-02-04T16:36:13.323Z,31.93
2019-02-04T16:38:43.123Z,30.63
2019-02-04T16:41:12.839Z,30.20
2019-02-04T16:43:42.450Z,34.43
2019-02-04T16:46:12.808Z,25.60
2019-02-04T16:48:42.484Z,32.73
2019-02-04T16:51:13.614Z,32.97
2019-02-04T16:53:43.373Z,33.60
2019-02-04T16:56:13.078Z,32.77
2019-02-04T16:58:42.690Z,31.50
2019-02-04T17:01:12.704Z,28.47
2019-02-04T17:03:42.564Z,23.97
2019-02-04T17:06:12.815Z,27.67
2019-02-04T17:08:43.385Z,24.60
2019-02-04T17:11:13.465Z,23.83
2019-02-04T17:13:43.162Z,24.43
2019-02-04T17:16:13.054Z,17.47
2019-02-04T17:18:43.076Z,20.03
2019-02-04T17:21:13.514Z,18.10
2019-02-04T17:23:43.410Z,19.13
2019-02-04T17:26:14.270Z,22.10
2019-02-04T17:28:44.281Z,21.87
2019-02-04T17:31:15.086Z,21.27
2019-02-04T17:33:45.082Z,24.57
2019-02-04T17:36:15.765Z,22.70
2019-02-04T17:38:45.532Z,19.07
2019-02-04T17:41:15.413Z,20.40
2019-02-04T17:43:46.085Z,20.60
2019-02-04T17:46:17.979Z,20.70
2019-02-04T17:48:50.269Z,18.07
2019-02-04T17:51:20.142Z,15.87
2019-02-04T17:53:49.905Z,19.80
2019-02-04T17:56:19.913Z,17.80
2019-02-04T17:58:49.581Z,19.90
2019-02-04T18:01:19.788Z,19.97
2019-02-04T18:03:49.721Z,18.40
2019-02-04T18:06:19.541Z,19.43
2019-02-04T18:08:49.509Z,18.37
2019-02-04T18:11:19.204Z,17.83
2019-02-04T18:13:48.993Z,17.07
2019-02-04T18:16:18.928Z,13.60
2019-02-04T18:18:48.797Z,14.33
2019-02-04T18:21:18.487Z,11.70
2019-02-04T18:23:48.366Z,16.23
2019-02-04T18:26:18.570Z,15.60
2019-02-04T18:28:48.613Z,15.93
2019-02-04T18:31:18.312Z,16.97
2019-02-04T18:33:47.869Z,15.33
2019-02-04T18:36:17.728Z,15.83
2019-02-04T18:38:47.662Z,18.57
2019-02-04T18:41:17.267Z,16.60
2019-02-04T18:43:47.129Z,15.88
2019-02-04T18:46:17.735Z,17.93
2019-02-04T18:48:47.757Z,14.87
2019-02-04T18:51:17.471Z,16.83
2019-02-04T18:53:57.370Z,21.12
2019-02-04T18:56:19.938Z,20.63
2019-02-04T18:58:52.877Z,21.63
2019-02-04T19:01:24.066Z,19.87
2019-02-04T19:03:53.901Z,7.83
2019-02-04T19:06:24.061Z,18.17
2019-02-04T19:08:53.990Z,17.92
2019-02-04T19:11:23.932Z,17.10
2019-02-04T19:13:53.898Z,14.73
2019-02-04T19:16:23.779Z,16.93
2019-02-04T19:18:54.643Z,15.80
2019-02-04T19:21:25.787Z,17.27
2019-02-04T19:23:55.739Z,18.40
2019-02-04T19:26:25.692Z,20.33
2019-02-04T19:29:43.294Z,18.53
2019-02-04T19:32:15.003Z,11.07
2019-02-04T19:34:44.899Z,12.93
2019-02-04T19:37:14.914Z,15.38
2019-02-04T19:39:44.758Z,16.10
2019-02-04T19:42:17.749Z,16.20
2019-02-04T19:44:46.550Z,15.13
2019-02-04T19:47:16.351Z,17.23
2019-02-04T19:49:46.410Z,18.07
2019-02-04T19:52:16.323Z,9.83
2019-02-04T19:54:47.271Z,17.10
2019-02-04T19:57:17.212Z,17.80
2019-02-04T19:59:46.998Z,16.63
2019-02-04T20:02:16.860Z,20.43
2019-02-04T20:04:46.598Z,15.60
2019-02-04T20:07:16.469Z,18.27
2019-02-04T20:09:46.516Z,12.47
2019-02-04T20:12:16.393Z,16.00
2019-02-04T20:14:46.064Z,18.40
2019-02-04T20:17:16.341Z,12.53
2019-02-04T20:19:46.276Z,16.87
2019-02-04T20:22:16.086Z,17.10
2019-02-04T20:24:45.929Z,16.87
2019-02-04T20:27:16.193Z,20.67
2019-02-04T20:29:46.628Z,18.47
2019-02-04T20:32:16.442Z,22.53
2019-02-04T20:34:46.259Z,15.90
2019-02-04T20:37:16.267Z,16.70
2019-02-04T20:39:46.296Z,15.33
2019-02-04T20:42:16.065Z,18.40
2019-02-04T20:44:45.805Z,20.03
2019-02-04T20:47:15.645Z,10.93
2019-02-04T20:49:45.497Z,22.00
2019-02-04T20:52:15.682Z,23.43
2019-02-04T20:54:45.478Z,21.37
2019-02-04T20:57:15.417Z,21.43
2019-02-04T20:59:45.253Z,18.90
2019-02-04T21:02:15.336Z,16.30
2019-02-04T21:04:45.214Z,20.33
2019-02-04T21:07:15.223Z,21.90
2019-02-04T21:09:44.988Z,20.60
2019-02-04T21:12:15.172Z,19.90
2019-02-04T21:14:44.985Z,24.03
2019-02-04T21:17:15.810Z,18.37
2019-02-04T21:19:45.542Z,21.00
2019-02-04T21:22:15.400Z,15.73
2019-02-04T21:24:56.045Z,19.70
2019-02-04T21:27:16.450Z,20.73
2019-02-04T21:29:46.479Z,22.23
2019-02-04T21:32:16.425Z,23.07
2019-02-04T21:34:46.263Z,21.83
2019-02-04T21:37:16.211Z,25.00
2019-02-04T21:39:45.986Z,25.67
2019-02-04T21:42:15.644Z,26.47
2019-02-04T21:44:45.174Z,29.00
2019-02-04T21:47:14.924Z,31.07
2019-02-04T21:49:44.800Z,31.57
2019-02-04T21:52:14.827Z,31.63
2019-02-04T21:54:44.559Z,34.30
2019-02-04T21:57:15.397Z,32.70
2019-02-04T21:59:45.015Z,41.90
2019-02-04T22:02:14.607Z,36.93
2019-02-04T22:04:44.465Z,39.27
2019-02-04T22:07:14.149Z,36.33
2019-02-04T22:09:43.808Z,34.23
2019-02-04T22:12:13.390Z,29.77
2019-02-04T22:14:43.060Z,27.23
2019-02-04T22:17:13.077Z,33.97
2019-02-04T22:19:42.659Z,34.20
2019-02-04T22:22:12.618Z,39.20
2019-02-04T22:24:42.410Z,35.20
2019-02-04T22:27:12.345Z,41.00
2019-02-04T22:29:42.021Z,40.47
2019-02-04T22:32:11.972Z,34.30
2019-02-04T22:34:42.088Z,44.43
2019-02-04T22:37:11.967Z,39.27
2019-02-04T22:39:41.635Z,22.97
2019-02-04T22:42:11.529Z,35.93
2019-02-04T22:44:41.290Z,40.70
2019-02-04T22:47:11.128Z,38.50
2019-02-04T22:49:41.027Z,36.87
2019-02-04T22:52:11.211Z,29.97
2019-02-04T22:54:41.152Z,39.10
2019-02-04T22:57:11.218Z,36.50
2019-02-04T22:59:41.008Z,37.63
2019-02-04T23:02:11.617Z,37.97
2019-02-04T23:04:41.338Z,34.70
2019-02-04T23:07:11.190Z,39.17
2019-02-04T23:09:40.904Z,38.33
2019-02-04T23:12:10.687Z,34.87
2019-02-04T23:14:40.321Z,30.53
2019-02-04T23:17:10.048Z,30.43
2019-02-04T23:19:39.689Z,38.50
2019-02-04T23:22:09.518Z,34.73
2019-02-04T23:24:39.097Z,33.77
2019-02-04T23:27:08.906Z,32.30
2019-02-04T23:29:38.995Z,38.77
2019-02-04T23:32:08.670Z,34.13
2019-02-04T23:34:40.357Z,27.00
2019-02-04T23:37:10.121Z,29.13
2019-02-04T23:39:39.832Z,31.83
2019-02-04T23:42:09.882Z,37.13
2019-02-04T23:44:39.811Z,31.40
2019-02-04T23:47:09.587Z,27.03
2019-02-04T23:49:39.413Z,32.07
2019-02-04T23:52:09.024Z,27.43
2019-02-04T23:54:38.829Z,27.63
2019-02-04T23:57:09.044Z,34.57
2019-02-04T23:59:39.049Z,17.33
